Time;durP1;ratioP1;P1;durP2;ratioP2;P2;SDS_P1;SDS_P2;PMS_P1;PMS_P2;Temp;Humidity;BMP_temperature;BMP_pressure;BME280_temperature;BME280_humidity;BME280_pressure;Samples;Min_cycle;Max_cycle;Signal;HPM_P1;HPM_P2
2023/07/09 00:00:30;;;;;;;17.73;14.73;;;;;;;20.39;90.48;101628.53;6220590;22;20011;-70
2023/07/09 00:02:55;;;;;;;18.27;14.52;;;;;;;20.44;89.45;101625.66;6219588;22;20015;-70
2023/07/09 00:05:21;;;;;;;18.90;14.80;;;;;;;20.47;88.35;101622.03;6195638;22;20089;-70
2023/07/09 00:07:46;;;;;;;20.13;15.20;;;;;;;20.40;88.16;101619.63;6219781;22;20062;-70
2023/07/09 00:10:17;;;;;;;18.58;13.82;;;;;;;20.48;86.86;101631.75;6220829;22;20455;-70
2023/07/09 00:12:43;;;;;;;16.02;13.13;;;;;;;20.47;86.85;101619.34;6272542;22;20011;-70
2023/07/09 00:15:11;;;;;;;14.95;13.23;;;;;;;20.51;87.00;101620.97;6246041;22;20031;-70
2023/07/09 00:17:39;;;;;;;15.55;13.43;;;;;;;20.42;87.24;101617.75;6220748;22;20008;-70
2023/07/09 00:20:11;;;;;;;15.60;13.65;;;;;;;20.40;87.66;101624.94;6221514;22;20325;-70
2023/07/09 00:22:36;;;;;;;15.65;13.07;;;;;;;20.47;86.52;101624.69;6246659;22;20054;-70
2023/07/09 00:25:02;;;;;;;15.43;13.23;;;;;;;20.55;86.24;101628.75;6197358;22;20437;-70
2023/07/09 00:27:30;;;;;;;17.65;13.23;;;;;;;20.50;85.89;101629.88;6197606;22;20015;-70
2023/07/09 00:29:55;;;;;;;18.50;13.93;;;;;;;20.52;85.79;101630.69;6223326;22;20011;-71
2023/07/09 00:32:21;;;;;;;15.77;12.48;;;;;;;20.57;86.09;101623.38;6222574;22;20383;-70
2023/07/09 00:34:51;;;;;;;16.80;12.93;;;;;;;20.53;85.12;101629.75;6222663;22;20088;-70
2023/07/09 00:37:25;;;;;;;15.82;14.07;;;;;;;20.55;86.36;101635.88;6222953;22;20015;-70
2023/07/09 00:39:51;;;;;;;19.65;14.43;;;;;;;20.45;85.66;101632.72;6246677;22;20077;-70
2023/07/09 00:42:19;;;;;;;17.65;12.00;;;;;;;20.46;83.61;101636.25;6247365;22;20048;-70
2023/07/09 00:44:47;;;;;;;18.02;13.05;;;;;;;20.24;84.86;101632.69;6248048;22;20161;-70
2023/07/09 00:47:20;;;;;;;15.50;12.90;;;;;;;20.18;86.85;101630.25;6247477;22;20003;-70
2023/07/09 00:49:47;;;;;;;18.42;13.43;;;;;;;20.19;85.40;101634.66;6274643;22;20298;-70
2023/07/09 00:52:22;;;;;;;15.75;14.05;;;;;;;20.26;85.74;101632.63;6247961;22;20058;-68
2023/07/09 00:54:50;;;;;;;16.20;14.60;;;;;;;20.39;86.66;101636.50;6246900;22;20012;-68
2023/07/09 00:57:21;;;;;;;15.88;13.85;;;;;;;20.25;85.69;101641.53;6221452;22;20008;-68
2023/07/09 00:59:51;;;;;;;15.85;14.02;;;;;;;20.03;88.54;101639.69;6245059;22;20422;-68
2023/07/09 01:02:22;;;;;;;;;;;;;;;20.36;84.40;101641.09;6247701;22;20035;-68
2023/07/09 01:04:49;;;;;;;19.40;15.27;;;;;;;20.00;88.15;101642.50;6223888;22;19981;-68
2023/07/09 01:07:16;;;;;;;17.48;15.48;;;;;;;20.01;87.56;101641.56;6197092;22;20007;-68
2023/07/09 01:09:42;;;;;;;16.45;14.65;;;;;;;20.02;87.10;101642.41;6245945;22;20003;-68
2023/07/09 01:12:09;;;;;;;18.98;15.07;;;;;;;19.98;87.11;101644.31;6197636;22;20594;-69
2023/07/09 01:14:37;;;;;;;16.42;14.73;;;;;;;20.22;85.70;101646.97;6247290;22;20011;-68
2023/07/09 01:17:05;;;;;;;18.00;14.80;;;;;;;20.04;86.20;101638.78;6245657;22;20098;-68
2023/07/09 01:19:42;;;;;;;16.42;14.73;;;;;;;19.93;85.96;101641.00;6220248;22;20011;-68
2023/07/09 01:27:38;;;;;;;18.17;13.95;;;;;;;19.86;86.73;101634.16;6233133;22;20027;-67
2023/07/09 01:32:40;;;;;;;16.13;14.43;;;;;;;20.08;84.96;101634.19;6244679;22;20493;-68
2023/07/09 01:35:06;;;;;;;16.90;14.57;;;;;;;19.91;85.57;101642.81;6177914;22;20020;-67
2023/07/09 01:37:35;;;;;;;22.73;15.18;;;;;;;19.78;86.51;101642.38;6202437;22;20011;-68
2023/07/09 01:45:12;;;;;;;16.40;14.15;;;;;;;19.89;84.45;101644.69;6247989;22;20020;-67
2023/07/09 02:33:03;;;;;;;20.92;18.77;;;;;;;19.55;88.15;101652.09;6254719;22;20189;-68
2023/07/09 02:35:28;;;;;;;21.48;19.27;;;;;;;19.46;88.26;101651.56;6182396;23;20024;-67
2023/07/09 02:41:34;;;;;;;18.48;15.95;;;;;;;19.43;86.73;101655.19;6214013;23;20055;-67
2023/07/09 02:44:00;;;;;;;19.30;17.00;;;;;;;19.23;87.76;101655.06;6212058;23;20005;-67
2023/07/09 02:46:25;;;;;;;19.30;17.20;;;;;;;19.26;87.95;101655.78;6212216;23;20037;-67
2023/07/09 02:48:53;;;;;;;17.27;15.48;;;;;;;19.19;86.93;101651.63;6187310;23;20012;-67
2023/07/09 02:51:18;;;;;;;19.73;16.00;;;;;;;19.16;87.33;101646.41;6212282;23;20012;-67
2023/07/09 02:53:43;;;;;;;17.33;15.50;;;;;;;19.06;87.81;101647.66;6187235;23;20013;-67
2023/07/09 02:56:09;;;;;;;17.15;15.45;;;;;;;18.97;88.09;101654.16;6186754;23;20020;-68
2023/07/09 02:58:34;;;;;;;19.95;15.85;;;;;;;19.04;88.82;101651.22;6185807;23;20083;-68
2023/07/09 03:01:00;;;;;;;21.17;18.75;;;;;;;18.96;90.90;101653.28;6186175;23;20319;-67
2023/07/09 03:03:25;;;;;;;19.88;17.88;;;;;;;18.92;91.52;101656.09;6211503;23;20092;-67
2023/07/09 03:05:50;;;;;;;20.33;17.55;;;;;;;18.86;92.00;101651.81;6211625;23;20039;-67
2023/07/09 03:08:16;;;;;;;20.00;17.77;;;;;;;18.90;90.87;101653.50;6184533;23;20012;-68
2023/07/09 03:10:41;;;;;;;25.02;19.30;;;;;;;18.80;91.77;101650.25;6210351;23;20013;-67
2023/07/09 03:13:07;;;;;;;21.67;19.38;;;;;;;18.75;92.97;101653.97;6182370;23;20423;-69
2023/07/09 03:15:32;;;;;;;22.17;19.88;;;;;;;18.68;93.93;101655.97;6211306;23;20449;-69
2023/07/09 03:17:58;;;;;;;21.67;19.38;;;;;;;18.66;94.07;101656.03;6184656;23;20118;-69
2023/07/09 03:20:25;;;;;;;18.92;17.05;;;;;;;18.63;94.65;101658.78;6212452;23;20024;-69
2023/07/09 03:22:51;;;;;;;20.58;17.90;;;;;;;18.59;95.05;101654.47;6210636;23;20127;-69
2023/07/09 03:25:16;;;;;;;20.50;18.30;;;;;;;18.57;95.18;101658.09;6211346;23;20481;-69
2023/07/09 03:27:41;;;;;;;20.85;18.33;;;;;;;18.58;95.46;101660.72;6211927;23;20015;-69
2023/07/09 03:30:07;;;;;;;20.52;18.35;;;;;;;18.54;95.62;101656.41;6186958;23;20010;-69
2023/07/09 03:32:33;;;;;;;21.65;19.20;;;;;;;18.58;95.51;101658.06;6184702;23;20008;-69
2023/07/09 03:34:58;;;;;;;20.40;18.45;;;;;;;18.65;94.29;101648.97;6185562;23;20123;-69
2023/07/09 03:37:24;;;;;;;21.77;19.38;;;;;;;18.61;94.86;101646.47;6210785;23;20146;-69
2023/07/09 03:39:50;;;;;;;31.38;20.67;;;;;;;18.60;95.61;101650.88;6183887;23;20021;-69
2023/07/09 03:42:16;;;;;;;31.23;23.52;;;;;;;18.60;96.42;101650.88;6211137;23;20019;-69
2023/07/09 03:44:42;;;;;;;29.42;22.20;;;;;;;18.65;96.16;101653.41;6185877;23;20005;-69
2023/07/09 03:47:07;;;;;;;24.23;21.83;;;;;;;18.59;96.44;101645.63;6185659;23;20016;-69
2023/07/09 03:49:33;;;;;;;27.48;24.05;;;;;;;18.64;96.87;101649.88;6234730;23;20008;-69
2023/07/09 03:51:58;;;;;;;26.95;22.98;;;;;;;18.60;96.61;101644.72;6212123;23;20040;-69
2023/07/09 03:54:24;;;;;;;24.08;21.58;;;;;;;18.58;96.55;101647.44;6186159;23;20008;-69
2023/07/09 03:56:49;;;;;;;25.48;22.75;;;;;;;18.64;96.22;101646.38;6214250;23;20008;-69
2023/07/09 03:59:16;;;;;;;25.33;22.60;;;;;;;18.69;96.25;101653.25;6186686;23;20020;-69
2023/07/09 04:01:46;;;;;;;23.52;21.17;;;;;;;18.72;95.92;101649.66;6187285;23;20028;-69
2023/07/09 04:04:13;;;;;;;23.95;21.48;;;;;;;18.87;95.43;101658.91;6188498;23;20020;-69
2023/07/09 04:06:39;;;;;;;29.35;23.13;;;;;;;18.86;95.84;101651.81;6211624;23;20028;-69
2023/07/09 04:09:04;;;;;;;25.35;20.98;;;;;;;18.89;94.71;101657.06;6185804;23;20016;-69
2023/07/09 04:11:29;;;;;;;24.50;22.05;;;;;;;19.03;94.51;101652.13;6212740;23;20021;-69
2023/07/09 04:13:55;;;;;;;25.38;22.67;;;;;;;19.17;93.65;101656.97;6187465;23;20016;-69
2023/07/09 04:16:20;;;;;;;24.50;21.95;;;;;;;19.25;93.49;101654.09;6186950;23;20043;-69
2023/07/09 04:18:46;;;;;;;31.40;22.48;;;;;;;19.32;93.05;101650.28;6184068;23;20012;-69
2023/07/09 04:21:11;;;;;;;29.15;21.73;;;;;;;19.49;92.49;101648.78;6185465;23;20015;-69
2023/07/09 04:23:37;;;;;;;24.50;21.73;;;;;;;19.60;91.76;101649.28;6184824;23;20032;-69
2023/07/09 04:26:02;;;;;;;24.88;22.23;;;;;;;19.68;91.25;101659.63;6185750;23;20023;-69
2023/07/09 04:28:30;;;;;;;24.08;21.48;;;;;;;19.73;90.89;101653.19;6186058;23;20013;-69
2023/07/09 04:30:55;;;;;;;23.92;21.48;;;;;;;19.72;90.79;101659.47;6186311;23;20015;-67
2023/07/09 04:33:21;;;;;;;26.08;20.55;;;;;;;19.80;90.55;101658.34;6186842;23;20012;-67
2023/07/09 04:35:47;;;;;;;30.92;20.70;;;;;;;19.90;90.36;101665.03;6186509;23;20031;-67
2023/07/09 04:38:14;;;;;;;24.73;21.25;;;;;;;19.90;90.05;101655.25;6185430;23;20020;-67
2023/07/09 04:40:39;;;;;;;24.65;21.83;;;;;;;20.00;89.87;101654.94;6209578;23;20039;-67
2023/07/09 04:43:05;;;;;;;25.42;22.83;;;;;;;20.12;89.55;101666.88;6184898;23;20005;-70
2023/07/09 04:45:31;;;;;;;29.65;22.77;;;;;;;20.24;88.99;101658.41;6212377;23;20019;-70
2023/07/09 04:47:56;;;;;;;26.02;22.45;;;;;;;20.48;88.48;101661.03;6185908;23;20032;-70
2023/07/09 04:50:22;;;;;;;26.02;22.05;;;;;;;20.70;87.19;101667.25;6212062;23;20012;-70
2023/07/09 04:52:47;;;;;;;27.77;21.60;;;;;;;20.95;86.98;101666.22;6185757;23;20127;-70
2023/07/09 04:55:13;;;;;;;24.13;20.92;;;;;;;21.36;86.01;101662.69;6187084;23;20430;-70
2023/07/09 04:57:39;;;;;;;24.90;22.27;;;;;;;21.72;83.91;101657.56;6187446;23;20008;-70
2023/07/09 05:00:06;;;;;;;28.15;23.17;;;;;;;22.18;81.19;101659.84;6211089;23;20434;-70
2023/07/09 05:02:31;;;;;;;31.10;22.63;;;;;;;22.51;80.40;101664.53;6211644;23;20012;-67
2023/07/09 05:04:57;;;;;;;26.02;22.38;;;;;;;22.94;78.76;101662.41;6185925;23;20414;-68
2023/07/09 05:07:22;;;;;;;24.95;22.25;;;;;;;23.28;76.05;101665.19;6186717;23;20095;-67
2023/07/09 05:09:48;;;;;;;29.85;22.85;;;;;;;23.60;74.85;101657.25;6185645;23;20055;-67
2023/07/09 05:12:14;;;;;;;29.95;22.63;;;;;;;23.83;74.67;101662.22;6210236;23;20013;-67
2023/07/09 05:14:39;;;;;;;24.90;22.33;;;;;;;24.07;72.79;101661.84;6211328;23;20008;-67
2023/07/09 05:17:06;;;;;;;25.15;22.70;;;;;;;24.37;72.88;101666.41;6211676;23;20063;-67
2023/07/09 05:19:31;;;;;;;26.48;23.33;;;;;;;24.50;72.98;101667.44;6212272;23;20083;-68
2023/07/09 05:21:57;;;;;;;25.13;22.50;;;;;;;24.70;72.02;101671.69;6211688;23;20074;-68
2023/07/09 05:24:22;;;;;;;26.10;23.50;;;;;;;25.05;69.68;101657.97;6184788;23;20022;-68
2023/07/09 05:26:48;;;;;;;26.30;23.45;;;;;;;25.27;70.69;101662.09;6209102;23;20404;-67
2023/07/09 05:29:13;;;;;;;27.95;25.13;;;;;;;25.44;67.10;101661.06;6186734;23;20013;-68
2023/07/09 05:31:41;;;;;;;28.23;25.33;;;;;;;25.71;67.19;101658.47;6185968;23;20100;-69
2023/07/09 05:34:07;;;;;;;28.23;24.92;;;;;;;25.82;66.24;101665.00;6210738;23;20008;-69
2023/07/09 05:36:35;;;;;;;27.27;24.58;;;;;;;25.69;67.32;101660.41;6212022;23;20059;-68
2023/07/09 05:39:01;;;;;;;28.73;25.92;;;;;;;26.04;66.43;101662.69;6185867;23;20012;-68
2023/07/09 05:41:26;;;;;;;30.52;24.95;;;;;;;26.25;64.24;101662.28;6186496;23;20009;-68
2023/07/09 05:43:52;;;;;;;28.85;25.80;;;;;;;26.65;63.57;101661.44;6211547;23;20088;-67
2023/07/09 05:46:18;;;;;;;28.67;25.77;;;;;;;26.75;63.39;101667.94;6211742;23;20005;-67
2023/07/09 05:48:44;;;;;;;27.55;24.73;;;;;;;27.01;62.55;101665.31;6210981;23;20338;-68
2023/07/09 05:51:13;;;;;;;27.52;24.58;;;;;;;27.21;63.23;101664.84;6186382;23;20005;-67
2023/07/09 05:53:39;;;;;;;27.27;24.63;;;;;;;27.19;61.10;101655.97;6186281;23;20008;-68
2023/07/09 05:56:05;;;;;;;26.40;23.63;;;;;;;27.21;60.35;101661.25;6210762;23;20431;-68
2023/07/09 05:58:30;;;;;;;25.88;23.30;;;;;;;27.41;60.17;101662.59;6186176;23;20047;-68
2023/07/09 06:00:57;;;;;;;26.63;24.05;;;;;;;27.66;59.91;101670.66;6210920;23;20465;-68
2023/07/09 06:03:25;;;;;;;25.42;22.98;;;;;;;27.71;58.11;101677.53;6185764;23;20009;-68
2023/07/09 06:05:51;;;;;;;26.60;23.33;;;;;;;27.99;59.69;101674.63;6211076;23;20092;-68
2023/07/09 06:08:21;;;;;;;27.10;24.52;;;;;;;28.22;57.41;101680.16;6184341;23;20012;-67
2023/07/09 06:10:55;;;;;;;25.27;22.50;;;;;;;28.48;58.73;101674.66;6187095;23;20334;-68
2023/07/09 06:13:21;;;;;;;25.40;22.77;;;;;;;28.47;56.80;101671.09;6211910;23;20408;-68
2023/07/09 06:15:48;;;;;;;25.17;21.98;;;;;;;28.50;57.02;101681.69;6211262;23;20016;-67
2023/07/09 06:18:14;;;;;;;25.42;22.90;;;;;;;28.67;55.68;101685.81;6210639;23;20143;-68
2023/07/09 06:20:39;;;;;;;25.60;22.92;;;;;;;28.89;55.56;101676.09;6187422;23;20005;-68
2023/07/09 06:23:05;;;;;;;25.25;22.85;;;;;;;28.99;53.79;101682.50;6236377;23;20016;-68
2023/07/09 06:25:30;;;;;;;25.23;22.75;;;;;;;29.20;53.46;101679.97;6185649;23;20016;-68
2023/07/09 06:27:57;;;;;;;25.48;22.90;;;;;;;29.61;53.45;101676.88;6185647;23;20430;-68
2023/07/09 06:30:25;;;;;;;25.48;23.02;;;;;;;29.71;53.00;101684.13;6210231;23;20318;-68
2023/07/09 06:32:50;;;;;;;27.10;24.38;;;;;;;30.00;53.79;101678.25;6184881;23;20485;-68
2023/07/09 06:35:16;;;;;;;27.73;24.92;;;;;;;30.02;53.00;101678.97;6185027;23;20044;-68
2023/07/09 06:37:41;;;;;;;25.80;23.38;;;;;;;29.96;51.60;101676.78;6184029;23;20022;-68
2023/07/09 06:40:08;;;;;;;26.73;23.92;;;;;;;30.03;53.37;101686.09;6183804;23;20009;-68
2023/07/09 06:42:36;;;;;;;25.17;22.77;;;;;;;30.04;53.34;101684.25;6210789;23;20008;-68
2023/07/09 06:45:01;;;;;;;26.38;23.73;;;;;;;29.82;53.95;101679.69;6185345;23;20008;-68
2023/07/09 06:47:27;;;;;;;25.52;23.00;;;;;;;29.60;52.75;101676.00;6185301;23;20016;-68
2023/07/09 06:49:52;;;;;;;25.38;22.90;;;;;;;29.67;53.98;101681.81;6184606;23;20398;-68
2023/07/09 06:52:17;;;;;;;26.05;23.33;;;;;;;29.32;54.29;101683.59;6185956;23;20005;-68
2023/07/09 06:54:43;;;;;;;24.75;22.40;;;;;;;29.15;55.24;101682.19;6185223;23;20008;-68
2023/07/09 06:57:08;;;;;;;24.27;21.92;;;;;;;29.11;56.64;101680.69;6183491;23;20039;-69
2023/07/09 06:59:34;;;;;;;25.42;22.85;;;;;;;28.65;56.55;101682.38;6183898;23;20042;-68
2023/07/09 07:01:59;;;;;;;25.40;22.67;;;;;;;28.60;58.30;101676.44;6185472;23;20008;-68
2023/07/09 07:04:27;;;;;;;24.63;22.25;;;;;;;28.38;59.52;101679.88;6184921;23;20087;-68
2023/07/09 07:06:52;;;;;;;23.52;21.20;;;;;;;28.34;61.06;101684.63;6209913;23;20438;-68
2023/07/09 07:09:18;;;;;;;22.27;19.92;;;;;;;28.39;58.84;101681.63;6210491;23;20005;-68
2023/07/09 07:11:43;;;;;;;23.98;20.20;;;;;;;28.31;57.15;101678.63;6185980;23;20012;-68
2023/07/09 07:14:09;;;;;;;21.70;19.35;;;;;;;28.32;58.27;101678.50;6184990;23;20359;-68
2023/07/09 07:16:34;;;;;;;21.45;18.05;;;;;;;28.35;57.12;101674.72;6210009;23;20012;-68
2023/07/09 07:21:25;;;;;;;18.48;16.55;;;;;;;28.23;58.84;101676.50;6244903;22;20157;-70
2023/07/09 07:23:50;;;;;;;21.65;18.45;;;;;;;28.26;58.18;101678.09;6195944;22;20421;-70
2023/07/09 07:26:16;;;;;;;19.38;17.40;;;;;;;28.08;57.26;101670.38;6248024;22;20320;-68
2023/07/09 07:28:41;;;;;;;20.92;17.20;;;;;;;28.21;59.10;101678.44;6224676;22;20397;-69
2023/07/09 07:31:08;;;;;;;18.77;16.88;;;;;;;28.35;57.30;101680.97;6222193;22;20460;-68
2023/07/09 07:33:34;;;;;;;19.38;16.98;;;;;;;28.32;57.76;101673.09;6223911;22;20310;-70
2023/07/09 07:35:59;;;;;;;17.05;14.95;;;;;;;28.35;58.53;101678.28;6223663;22;20013;-70
2023/07/09 07:38:25;;;;;;;17.52;14.68;;;;;;;28.34;57.56;101673.00;6222938;22;20061;-70
2023/07/09 07:40:50;;;;;;;17.83;14.40;;;;;;;28.63;59.66;101681.66;6223875;22;20285;-70
2023/07/09 07:43:16;;;;;;;17.90;14.90;;;;;;;28.59;56.31;101685.50;6224161;22;20164;-68
2023/07/09 07:45:43;;;;;;;18.95;15.23;;;;;;;28.78;57.58;101681.47;6198674;22;20014;-68
2023/07/09 07:48:08;;;;;;;20.55;16.13;;;;;;;28.71;56.97;101675.66;6248157;22;20472;-69
2023/07/09 07:50:34;;;;;;;18.20;15.93;;;;;;;28.77;57.48;101682.44;6199361;22;20011;-68
2023/07/09 07:52:59;;;;;;;18.13;15.00;;;;;;;28.79;58.13;101683.16;6197773;22;20011;-69
2023/07/09 07:55:24;;;;;;;15.88;13.73;;;;;;;29.00;57.40;101683.38;6223791;22;20436;-69
2023/07/09 07:57:50;;;;;;;13.23;11.65;;;;;;;29.17;56.71;101688.31;6223652;22;20068;-69
2023/07/09 08:00:16;;;;;;;15.70;11.90;;;;;;;29.14;56.25;101688.56;6224178;22;20016;-69
2023/07/09 08:02:41;;;;;;;15.07;12.30;;;;;;;29.26;55.69;101689.47;6222044;22;20003;-69
2023/07/09 08:05:07;;;;;;;17.58;12.00;;;;;;;29.34;57.38;101684.34;6222577;22;20710;-68
2023/07/09 08:07:32;;;;;;;12.43;10.45;;;;;;;29.50;55.38;101681.28;6221995;22;20126;-68
2023/07/09 08:09:58;;;;;;;14.38;9.98;;;;;;;29.72;54.15;101668.75;6249323;22;20034;-68
2023/07/09 08:12:23;;;;;;;13.07;9.43;;;;;;;29.75;54.09;101671.22;6248294;22;20405;-69
2023/07/09 08:14:49;;;;;;;11.30;8.15;;;;;;;29.92;51.45;101675.28;6223524;22;20318;-68
2023/07/09 08:17:15;;;;;;;12.95;7.05;;;;;;;30.03;51.24;101677.97;6221859;22;20098;-69
2023/07/09 08:19:52;;;;;;;10.80;7.75;;;;;;;29.99;48.86;101670.25;6249080;22;20004;-68
2023/07/09 08:22:20;;;;;;;12.00;7.30;;;;;;;30.17;50.69;101662.47;6246191;22;19999;-69
2023/07/09 08:24:46;;;;;;;10.32;6.72;;;;;;;30.29;50.44;101664.16;6247550;22;20004;-68
2023/07/09 08:27:11;;;;;;;10.77;6.82;;;;;;;30.38;49.53;101666.09;6221535;22;20111;-69
2023/07/09 08:29:37;;;;;;;10.13;7.53;;;;;;;30.40;46.70;101663.25;6275974;22;20444;-69
2023/07/09 08:32:03;;;;;;;12.38;6.88;;;;;;;30.40;48.63;101671.38;6221436;22;20314;-71
2023/07/09 08:34:29;;;;;;;11.18;7.43;;;;;;;30.43;49.02;101667.59;6276154;22;20029;-71
2023/07/09 08:36:55;;;;;;;10.23;7.70;;;;;;;30.49;48.02;101656.28;6248056;22;20015;-69
2023/07/09 08:39:21;;;;;;;8.50;6.82;;;;;;;30.54;46.13;101657.63;6248153;22;20429;-69
2023/07/09 08:42:11;;;;;;;9.15;6.97;;;;;;;30.66;48.30;101662.94;6249098;22;20004;-70
2023/07/09 08:45:11;;;;;;;9.40;7.20;;;;;;;30.80;49.39;101659.94;6248228;22;20012;-68
2023/07/09 08:47:51;;;;;;;11.68;7.28;;;;;;;30.96;47.73;101659.50;6249388;22;20003;-70
2023/07/09 08:50:20;;;;;;;10.07;7.28;;;;;;;31.05;47.80;101668.72;6249270;22;20307;-70
2023/07/09 08:52:50;;;;;;;8.30;6.72;;;;;;;31.01;47.29;101673.50;6246920;22;20497;-69
2023/07/09 08:55:22;;;;;;;11.48;7.07;;;;;;;30.97;45.68;101666.63;6247091;22;20082;-68
2023/07/09 08:57:57;;;;;;;10.02;6.95;;;;;;;30.95;46.95;101665.03;6273355;22;20007;-69
2023/07/09 09:00:30;;;;;;;8.95;6.40;;;;;;;30.93;44.57;101665.16;6247633;22;20374;-69
2023/07/09 09:03:16;;;;;;;12.85;6.70;;;;;;;31.07;47.02;101656.72;6247827;22;20000;-69
2023/07/09 09:05:48;;;;;;;7.55;6.20;;;;;;;31.01;45.21;101670.81;6248254;22;20430;-68
2023/07/09 09:08:26;;;;;;;10.45;6.80;;;;;;;31.14;45.64;101661.63;6247110;22;20033;-68
2023/07/09 09:11:12;;;;;;;10.43;6.57;;;;;;;31.25;45.02;101661.56;6246481;22;20011;-69
2023/07/09 09:13:39;;;;;;;9.60;5.97;;;;;;;31.30;44.75;101658.44;6222946;22;20031;-70
2023/07/09 09:16:14;;;;;;;9.40;6.35;;;;;;;31.42;44.57;101660.94;6197671;22;20008;-71
2023/07/09 09:18:44;;;;;;;9.45;6.38;;;;;;;31.33;43.85;101650.91;6247690;22;20342;-70
2023/07/09 09:21:23;;;;;;;13.27;6.40;;;;;;;31.33;43.75;101656.31;6221443;22;20020;-71
2023/07/09 09:23:56;;;;;;;8.65;6.13;;;;;;;31.34;44.01;101657.19;6246152;22;20022;-70
2023/07/09 09:26:27;;;;;;;8.27;6.13;;;;;;;31.32;42.83;101660.03;6247176;22;20008;-70
2023/07/09 09:28:53;;;;;;;8.07;6.13;;;;;;;31.38;43.09;101648.66;6242005;22;20014;-69
2023/07/09 09:31:19;;;;;;;8.70;6.22;;;;;;;31.38;43.93;101654.06;6192256;22;20438;-70
2023/07/09 09:33:47;;;;;;;11.68;6.07;;;;;;;31.49;43.90;101661.25;6222216;22;20429;-70
2023/07/09 09:36:22;;;;;;;12.68;6.45;;;;;;;31.63;45.59;101667.34;6248083;22;20008;-70
2023/07/09 09:38:50;;;;;;;7.68;6.07;;;;;;;31.50;42.59;101662.13;6246638;22;20010;-70
2023/07/09 09:41:19;;;;;;;10.00;6.63;;;;;;;31.53;43.27;101654.56;6223365;22;20000;-70
2023/07/09 09:43:46;;;;;;;9.52;7.13;;;;;;;31.63;45.21;101646.50;6247304;22;20000;-70
2023/07/09 09:46:26;;;;;;;10.52;6.47;;;;;;;31.81;43.34;101640.44;6247215;22;20011;-71
2023/07/09 09:49:00;;;;;;;13.45;6.38;;;;;;;31.76;43.39;101640.84;6246816;22;20090;-70
2023/07/09 09:51:26;;;;;;;10.93;6.35;;;;;;;31.81;43.29;101632.31;6274998;22;20376;-70
2023/07/09 09:54:00;;;;;;;10.65;6.15;;;;;;;31.72;42.89;101634.88;6247653;22;20004;-70
2023/07/09 09:56:33;;;;;;;8.85;5.55;;;;;;;31.60;43.25;101620.53;6247322;22;20003;-71
2023/07/09 09:59:00;;;;;;;12.00;6.40;;;;;;;31.68;44.47;101628.00;6245718;22;20407;-69
2023/07/09 10:01:31;;;;;;;8.32;5.18;;;;;;;31.64;41.21;101620.31;6219666;22;20003;-69
2023/07/09 10:03:59;;;;;;;10.35;5.72;;;;;;;31.59;42.61;101617.97;6246622;22;20452;-69
2023/07/09 10:06:36;;;;;;;11.85;5.47;;;;;;;31.67;42.21;101610.03;6220259;22;20016;-69
2023/07/09 10:09:02;;;;;;;9.15;5.55;;;;;;;31.63;41.25;101610.44;6245852;22;20468;-69
2023/07/09 10:11:47;;;;;;;9.98;6.15;;;;;;;31.68;41.71;101616.28;6246917;22;20342;-71
2023/07/09 10:14:32;;;;;;;9.95;5.80;;;;;;;31.70;41.12;101619.75;6245393;22;20000;-70
2023/07/09 10:17:05;;;;;;;10.40;5.95;;;;;;;31.62;42.60;101617.69;6245127;22;20035;-71
2023/07/09 10:19:59;;;;;;;8.27;6.15;;;;;;;31.73;42.72;101620.31;6245479;22;20000;-70
2023/07/09 10:22:48;;;;;;;10.02;5.70;;;;;;;31.90;42.65;101616.06;6247606;22;20135;-70
2023/07/09 10:25:17;;;;;;;7.55;5.25;;;;;;;31.78;42.79;101620.75;6246470;22;20007;-70
2023/07/09 10:27:57;;;;;;;10.55;5.90;;;;;;;31.93;44.23;101620.38;6247025;22;20434;-70
2023/07/09 10:30:40;;;;;;;10.82;5.95;;;;;;;31.92;43.69;101618.66;6245802;22;20386;-70
2023/07/09 10:33:10;;;;;;;7.03;5.88;;;;;;;32.01;43.28;101620.53;6246706;22;20007;-71
2023/07/09 10:36:01;;;;;;;8.27;5.68;;;;;;;32.10;42.02;101633.22;6247334;22;20286;-71
2023/07/09 10:38:34;;;;;;;11.10;6.00;;;;;;;32.12;42.72;101636.72;6244625;22;20019;-71
2023/07/09 10:41:03;;;;;;;7.60;5.63;;;;;;;32.20;42.35;101632.44;6245713;22;20418;-70
2023/07/09 10:43:46;;;;;;;9.63;5.50;;;;;;;32.09;40.53;101634.22;6220481;22;20008;-71
2023/07/09 10:46:18;;;;;;;10.52;6.28;;;;;;;32.18;41.17;101639.84;6241610;22;20007;-70
2023/07/09 10:49:14;;;;;;;9.68;5.40;;;;;;;32.29;41.33;101637.00;6242502;22;20033;-71
2023/07/09 10:51:56;;;;;;;8.50;5.45;;;;;;;32.29;41.01;101637.84;6246031;22;20019;-70
2023/07/09 10:54:37;;;;;;;10.85;6.18;;;;;;;32.43;40.90;101631.16;6245226;22;20007;-70
2023/07/09 10:57:37;;;;;;;12.30;6.20;;;;;;;32.52;41.64;101636.72;6275045;22;20049;-70
2023/07/09 11:00:11;;;;;;;10.52;6.15;;;;;;;32.50;39.91;101627.88;6274924;22;19999;-70
2023/07/09 11:02:44;;;;;;;7.25;5.47;;;;;;;32.64;40.61;101619.28;6274860;22;20095;-70
2023/07/09 11:05:10;;;;;;;7.70;5.70;;;;;;;32.68;41.58;101626.16;6247160;22;20016;-70
2023/07/09 11:07:44;;;;;;;11.60;5.70;;;;;;;32.69;41.79;101618.91;6246274;22;20305;-70
2023/07/09 11:10:29;;;;;;;8.07;5.40;;;;;;;32.91;41.97;101609.56;6247803;22;20094;-69
2023/07/09 11:13:10;;;;;;;9.55;5.38;;;;;;;32.97;42.04;101607.16;6247095;22;20078;-68
2023/07/09 11:15:40;;;;;;;10.10;5.93;;;;;;;33.07;42.06;101607.09;6247031;22;20007;-69
2023/07/09 11:18:11;;;;;;;7.03;5.25;;;;;;;33.07;41.72;101604.38;6246688;22;20014;-71
2023/07/09 11:20:44;;;;;;;9.55;5.43;;;;;;;33.26;41.25;101602.63;6247430;22;20114;-69
2023/07/09 11:23:24;;;;;;;9.55;5.65;;;;;;;33.47;42.29;101611.41;6244784;22;20452;-69
2023/07/09 11:26:10;;;;;;;8.63;5.68;;;;;;;33.52;42.14;101608.25;6246084;22;20310;-68
2023/07/09 11:28:37;;;;;;;7.90;5.53;;;;;;;33.55;41.47;101615.22;6245728;22;20003;-68
2023/07/09 11:31:30;;;;;;;7.63;5.22;;;;;;;33.79;40.83;101631.88;6246738;22;20336;-69
2023/07/09 11:34:17;;;;;;;9.77;5.68;;;;;;;33.61;38.16;101626.38;6246112;22;20007;-69
2023/07/09 11:36:54;;;;;;;9.00;5.15;;;;;;;33.76;38.56;101628.59;6245727;22;20023;-70
2023/07/09 11:39:21;;;;;;;12.95;4.85;;;;;;;33.75;38.78;101622.31;6244717;22;20007;-70
2023/07/09 11:41:47;;;;;;;8.70;4.90;;;;;;;33.68;37.45;101621.19;6244915;22;20065;-71
2023/07/09 11:44:32;;;;;;;6.25;4.80;;;;;;;33.80;37.91;101622.72;6219333;22;20016;-70
2023/07/09 11:47:11;;;;;;;7.13;4.80;;;;;;;33.97;39.33;101620.19;6243735;22;20315;-69
2023/07/09 11:49:48;;;;;;;9.23;4.82;;;;;;;34.06;40.01;101627.41;6244949;22;20087;-70
2023/07/09 11:52:25;;;;;;;7.35;4.40;;;;;;;34.06;39.69;101627.41;6244799;22;20014;-68
2023/07/09 11:55:26;;;;;;;6.05;4.80;;;;;;;34.14;40.71;101626.66;6244187;22;20004;-71
2023/07/09 11:57:59;;;;;;;11.50;5.22;;;;;;;34.09;41.31;101629.81;6245971;22;20086;-68
2023/07/09 12:00:28;;;;;;;7.38;4.72;;;;;;;34.02;37.18;101631.44;6246945;22;20042;-68
2023/07/09 12:02:54;;;;;;;8.77;4.82;;;;;;;34.05;38.57;101633.88;6245644;22;20007;-70
2023/07/09 12:07:57;;;;;;;6.93;4.80;;;;;;;34.06;40.07;101635.56;6239258;22;20050;-68
2023/07/09 12:10:28;;;;;;;7.78;4.80;;;;;;;34.07;42.50;101644.59;6221444;22;20096;-68
2023/07/09 12:12:59;;;;;;;8.63;4.90;;;;;;;34.03;41.82;101643.19;6239731;22;20030;-67
2023/07/09 12:15:27;;;;;;;9.60;5.93;;;;;;;33.82;41.21;101638.84;6244800;22;20096;-68
2023/07/09 12:21:02;;;;;;;6.72;5.30;;;;;;;33.51;42.49;101633.72;6228913;22;20003;-70
2023/07/09 12:23:32;;;;;;;8.18;5.32;;;;;;;33.36;43.21;101630.63;6248284;22;20003;-70
2023/07/09 12:29:30;;;;;;;9.52;4.90;;;;;;;33.30;43.81;101625.78;6254498;22;20050;-66
2023/07/09 12:31:57;;;;;;;7.93;5.30;;;;;;;33.11;44.16;101616.66;6245357;22;20086;-66
2023/07/09 12:34:24;;;;;;;8.57;5.15;;;;;;;33.10;42.59;101614.09;6246821;22;20027;-67
2023/07/09 12:36:52;;;;;;;7.60;5.22;;;;;;;32.90;44.42;101613.28;6219707;22;20004;-66